createdAt,value
2023-03-01T00:00:51.963Z,11.65
2023-03-01T00:03:24.321Z,11.25
2023-03-01T00:05:56.339Z,12.27
2023-03-01T00:08:29.605Z,12.50
2023-03-01T00:11:15.864Z,12.70
2023-03-01T00:13:50.344Z,11.90
2023-03-01T00:16:27.180Z,10.93
2023-03-01T00:18:59.424Z,11.43
2023-03-01T00:21:31.652Z,12.18
2023-03-01T00:24:04.486Z,11.48
2023-03-01T00:26:36.495Z,12.68
2023-03-01T00:29:20.675Z,12.77
2023-03-01T00:31:52.910Z,13.00
2023-03-01T00:34:25.021Z,11.88
2023-03-01T00:37:06.340Z,11.18
2023-03-01T00:39:38.485Z,11.35
2023-03-01T00:42:10.469Z,12.38
2023-03-01T00:44:42.816Z,11.57
2023-03-01T00:47:15.109Z,12.63
2023-03-01T00:49:47.253Z,11.80
2023-03-01T00:52:19.244Z,11.55
2023-03-01T00:54:54.070Z,11.32
2023-03-01T00:57:28.437Z,11.48
2023-03-01T01:00:00.715Z,12.63
2023-03-01T01:02:35.118Z,12.38
2023-03-01T01:05:07.790Z,12.27
2023-03-01T01:07:40.159Z,11.32
2023-03-01T01:10:18.044Z,11.88
2023-03-01T01:12:50.131Z,11.95
2023-03-01T01:15:22.097Z,10.65
2023-03-01T01:17:54.320Z,12.60
2023-03-01T01:20:26.315Z,11.10
2023-03-01T01:22:58.331Z,11.60
2023-03-01T01:25:30.330Z,12.63
2023-03-01T01:28:02.350Z,9.90
2023-03-01T01:30:34.408Z,11.77
2023-03-01T01:33:06.420Z,11.32
2023-03-01T01:35:38.561Z,12.18
2023-03-01T01:38:10.550Z,11.88
2023-03-01T01:40:47.358Z,12.35
2023-03-01T01:43:28.662Z,11.48
2023-03-01T01:46:21.223Z,12.23
2023-03-01T01:49:16.249Z,11.85
2023-03-01T01:52:14.227Z,12.10
2023-03-01T01:55:23.010Z,11.60
2023-03-01T01:58:02.886Z,11.68
2023-03-01T02:00:35.322Z,11.80
2023-03-01T02:03:19.024Z,11.48
2023-03-01T02:06:05.520Z,11.95
2023-03-01T02:08:42.451Z,11.88
2023-03-01T02:11:18.175Z,12.25
2023-03-01T02:13:50.700Z,11.95
2023-03-01T02:16:23.134Z,12.13
2023-03-01T02:18:58.898Z,12.02
2023-03-01T02:21:42.783Z,12.90
2023-03-01T02:24:42.259Z,12.82
2023-03-01T02:27:14.485Z,12.25
2023-03-01T02:29:47.955Z,11.90
2023-03-01T02:32:26.267Z,11.90
2023-03-01T02:34:59.088Z,12.60
2023-03-01T02:37:32.158Z,12.15
2023-03-01T02:40:12.784Z,12.90
2023-03-01T02:42:58.279Z,13.27
2023-03-01T02:45:30.478Z,12.60
2023-03-01T02:48:02.539Z,11.95
2023-03-01T02:51:16.936Z,12.15
2023-03-01T02:54:25.945Z,12.85
2023-03-01T02:56:58.602Z,12.55
2023-03-01T02:59:40.495Z,12.43
2023-03-01T03:02:39.062Z,12.30
2023-03-01T03:05:18.072Z,12.38
2023-03-01T03:07:51.230Z,13.45
2023-03-01T03:10:32.635Z,12.93
2023-03-01T03:13:12.471Z,13.07
2023-03-01T03:15:44.947Z,13.02
2023-03-01T03:18:18.426Z,13.13
2023-03-01T03:20:54.092Z,12.95
2023-03-01T03:23:26.959Z,13.15
2023-03-01T03:25:58.965Z,12.93
2023-03-01T03:28:32.526Z,13.98
2023-03-01T03:31:08.523Z,14.43
2023-03-01T03:33:40.586Z,14.05
2023-03-01T03:36:25.280Z,13.55
2023-03-01T03:38:57.431Z,14.50
2023-03-01T03:41:29.484Z,14.05
2023-03-01T03:44:01.632Z,13.00
2023-03-01T03:46:33.942Z,14.70
2023-03-01T03:49:08.933Z,14.10
2023-03-01T03:51:40.984Z,14.63
2023-03-01T03:54:13.310Z,15.48
2023-03-01T03:56:45.398Z,14.88
2023-03-01T03:59:17.393Z,14.07
2023-03-01T04:01:49.508Z,15.93
2023-03-01T04:04:21.562Z,16.48
2023-03-01T04:06:56.366Z,15.80
2023-03-01T04:09:28.535Z,14.32
2023-03-01T04:12:01.717Z,15.75
2023-03-01T04:14:34.530Z,16.05
2023-03-01T04:17:06.536Z,16.15
2023-03-01T04:19:38.651Z,15.30
2023-03-01T04:22:12.520Z,14.82
2023-03-01T04:24:45.863Z,15.80
2023-03-01T04:27:18.060Z,17.15
2023-03-01T04:29:50.072Z,15.60
2023-03-01T04:32:25.098Z,14.90
2023-03-01T04:34:57.211Z,14.30
2023-03-01T04:37:29.264Z,15.77
2023-03-01T04:40:01.478Z,15.45
2023-03-01T04:42:33.825Z,17.67
2023-03-01T04:45:14.158Z,15.43
2023-03-01T04:47:47.699Z,16.17
2023-03-01T04:50:28.820Z,15.55
2023-03-01T04:53:04.020Z,15.73
2023-03-01T04:55:36.172Z,16.23
2023-03-01T04:58:08.175Z,15.32
2023-03-01T05:00:40.155Z,15.65
2023-03-01T05:03:19.240Z,15.43
2023-03-01T05:05:53.570Z,15.15
2023-03-01T05:08:25.675Z,15.70
2023-03-01T05:10:57.689Z,15.88
2023-03-01T05:13:30.528Z,15.07
2023-03-01T05:16:05.282Z,16.23
2023-03-01T05:18:37.317Z,15.55
2023-03-01T05:21:13.433Z,15.82
2023-03-01T05:23:46.441Z,17.27
2023-03-01T05:26:28.234Z,16.42
2023-03-01T05:29:01.128Z,15.95
2023-03-01T05:31:33.318Z,17.00
2023-03-01T05:34:05.869Z,16.20
2023-03-01T05:36:39.356Z,16.23
2023-03-01T05:39:11.400Z,15.70
2023-03-01T05:41:43.444Z,14.10
2023-03-01T05:44:15.578Z,17.08
2023-03-01T05:46:48.138Z,15.10
2023-03-01T05:49:20.561Z,15.18
2023-03-01T05:51:54.310Z,14.52
2023-03-01T05:54:29.782Z,16.45
2023-03-01T05:57:01.892Z,14.98
2023-03-01T05:59:34.101Z,14.55
2023-03-01T06:02:06.426Z,16.83
2023-03-01T06:04:38.739Z,15.43
2023-03-01T06:07:10.758Z,14.70
2023-03-01T06:09:43.007Z,15.88
2023-03-01T06:12:15.085Z,16.83
2023-03-01T06:14:48.772Z,15.77
2023-03-01T06:17:20.840Z,14.85
2023-03-01T06:19:52.984Z,14.73
2023-03-01T06:22:25.327Z,15.07
2023-03-01T06:24:58.671Z,16.15
2023-03-01T06:27:30.719Z,16.42
2023-03-01T06:30:03.836Z,16.17
2023-03-01T06:32:35.992Z,16.30
2023-03-01T06:35:13.621Z,16.60
2023-03-01T06:37:50.648Z,15.85
2023-03-01T06:40:26.606Z,16.75
2023-03-01T06:42:59.303Z,17.40
2023-03-01T06:45:31.354Z,17.05
2023-03-01T06:48:07.544Z,17.95
2023-03-01T06:50:39.876Z,16.40
2023-03-01T06:53:12.045Z,15.20
2023-03-01T06:55:44.045Z,16.42
2023-03-01T06:58:16.161Z,19.75
2023-03-01T07:00:48.229Z,21.17
2023-03-01T07:03:20.667Z,17.08
2023-03-01T07:05:56.535Z,16.80
2023-03-01T07:08:28.558Z,15.30
2023-03-01T07:11:05.575Z,15.25
2023-03-01T07:13:37.671Z,14.52
2023-03-01T07:16:10.338Z,15.00
2023-03-01T07:18:43.355Z,15.20
2023-03-01T07:21:17.620Z,14.30
2023-03-01T07:23:50.244Z,14.85
2023-03-01T07:26:24.628Z,14.77
2023-03-01T07:29:01.319Z,14.63
2023-03-01T07:31:33.645Z,12.93
2023-03-01T07:34:05.899Z,13.38
2023-03-01T07:36:38.894Z,15.13
2023-03-01T07:39:12.347Z,13.52
2023-03-01T07:41:44.428Z,13.93
2023-03-01T07:44:19.642Z,13.60
2023-03-01T07:46:53.489Z,15.05
2023-03-01T07:49:27.361Z,14.10
2023-03-01T07:51:59.550Z,13.48
2023-03-01T07:54:31.542Z,13.40
2023-03-01T07:57:03.671Z,15.48
2023-03-01T07:59:35.829Z,15.57
2023-03-01T08:02:08.070Z,15.10
2023-03-01T08:04:40.266Z,15.02
2023-03-01T08:07:12.281Z,15.13
2023-03-01T08:09:44.536Z,15.10
2023-03-01T08:12:18.081Z,13.55
2023-03-01T08:14:54.690Z,14.10
2023-03-01T08:17:29.853Z,14.27
2023-03-01T08:20:01.954Z,14.38
2023-03-01T08:22:34.160Z,14.55
2023-03-01T08:25:09.597Z,14.45
2023-03-01T08:27:41.712Z,15.35
2023-03-01T08:30:14.599Z,13.57
2023-03-01T08:32:46.957Z,15.15
2023-03-01T08:35:20.909Z,15.40
2023-03-01T08:37:53.343Z,14.88
2023-03-01T08:40:25.530Z,13.45
2023-03-01T08:43:02.099Z,13.40
2023-03-01T08:45:34.436Z,10.65
2023-03-01T08:48:08.881Z,11.10
2023-03-01T08:50:42.376Z,10.45
2023-03-01T08:53:14.719Z,9.93
2023-03-01T08:55:46.984Z,10.25
2023-03-01T08:58:19.119Z,9.07
2023-03-01T09:00:51.246Z,8.65
2023-03-01T09:03:25.052Z,8.93
2023-03-01T09:06:04.213Z,10.18
2023-03-01T09:08:39.084Z,9.75
2023-03-01T09:11:15.036Z,9.27
2023-03-01T09:13:48.643Z,8.02
2023-03-01T09:16:24.760Z,7.78
2023-03-01T09:18:56.963Z,7.70
2023-03-01T09:21:40.238Z,6.97
2023-03-01T09:24:16.616Z,6.97
2023-03-01T09:26:54.493Z,7.10
2023-03-01T09:29:27.119Z,7.15
2023-03-01T09:31:59.540Z,7.22
2023-03-01T09:34:32.420Z,6.88
2023-03-01T09:37:04.646Z,7.80
2023-03-01T09:39:37.410Z,6.97
2023-03-01T09:42:13.824Z,6.28
2023-03-01T09:44:51.706Z,6.32
2023-03-01T09:47:28.589Z,7.55
2023-03-01T09:50:20.396Z,6.88
2023-03-01T09:53:08.040Z,7.63
2023-03-01T09:55:57.218Z,6.90
2023-03-01T09:58:56.660Z,5.65
2023-03-01T10:01:43.318Z,4.80
2023-03-01T10:04:26.763Z,4.82
2023-03-01T10:07:10.508Z,4.20
2023-03-01T10:09:45.898Z,4.20
2023-03-01T10:12:29.135Z,4.10
2023-03-01T10:15:19.934Z,3.47
2023-03-01T10:17:58.680Z,3.80
2023-03-01T10:21:16.291Z,3.65
2023-03-01T10:23:54.403Z,3.83
2023-03-01T10:26:38.539Z,4.55
2023-03-01T10:29:13.383Z,4.72
2023-03-01T10:31:52.661Z,5.20
2023-03-01T10:34:48.883Z,4.60
2023-03-01T10:37:23.747Z,6.03
2023-03-01T10:40:11.990Z,5.43
2023-03-01T10:42:54.599Z,5.00
2023-03-01T10:45:37.962Z,5.05
2023-03-01T10:48:14.763Z,4.97
2023-03-01T10:50:50.593Z,4.68
2023-03-01T10:53:38.129Z,4.47
2023-03-01T10:56:14.485Z,5.57
2023-03-01T10:59:06.852Z,5.78
2023-03-01T11:01:38.892Z,6.60
2023-03-01T11:04:15.495Z,7.30
2023-03-01T11:07:01.360Z,7.35
2023-03-01T11:09:41.253Z,7.05
2023-03-01T11:12:18.387Z,7.78
2023-03-01T11:14:56.301Z,7.90
2023-03-01T11:17:39.010Z,8.75
2023-03-01T11:20:23.585Z,8.93
2023-03-01T11:23:02.898Z,8.88
2023-03-01T11:25:41.694Z,8.45
2023-03-01T11:28:20.347Z,8.60
2023-03-01T11:31:07.562Z,8.45
2023-03-01T11:34:06.718Z,9.57
2023-03-01T11:36:57.819Z,10.07
2023-03-01T11:39:43.758Z,9.48
2023-03-01T11:42:50.572Z,10.00
2023-03-01T11:45:25.993Z,9.25
2023-03-01T11:48:49.413Z,9.60
2023-03-01T11:52:18.555Z,9.57
2023-03-01T11:55:14.826Z,9.10
2023-03-01T11:58:26.161Z,9.45
2023-03-01T12:01:24.821Z,10.40
2023-03-01T12:04:57.107Z,9.73
2023-03-01T12:07:54.203Z,10.73
2023-03-01T12:11:05.223Z,11.05
2023-03-01T12:13:56.179Z,10.52
2023-03-01T12:16:55.611Z,10.82
2023-03-01T12:19:58.948Z,10.23
2023-03-01T12:22:44.781Z,10.15
2023-03-01T12:25:37.222Z,10.73
2023-03-01T12:28:31.653Z,10.05
2023-03-01T12:31:56.677Z,9.27
2023-03-01T12:34:51.144Z,8.93
2023-03-01T12:37:51.012Z,10.82
2023-03-01T12:40:39.671Z,9.88
2023-03-01T12:43:47.325Z,10.43
2023-03-01T12:46:53.804Z,9.57
2023-03-01T12:49:44.110Z,10.77
2023-03-01T12:55:42.445Z,10.73
2023-03-01T12:58:34.151Z,10.13
2023-03-01T13:01:24.257Z,10.07
2023-03-01T13:04:30.735Z,10.98
2023-03-01T13:07:40.930Z,10.82
2023-03-01T13:10:19.752Z,9.82
2023-03-01T13:12:57.768Z,10.43
2023-03-01T13:15:35.893Z,9.90
2023-03-01T13:18:17.000Z,9.85
2023-03-01T13:20:51.993Z,9.40
2023-03-01T13:23:23.920Z,9.32
2023-03-01T13:26:02.619Z,10.60
2023-03-01T13:28:45.560Z,9.77
2023-03-01T13:31:20.503Z,9.90
2023-03-01T13:33:54.533Z,10.20
2023-03-01T13:36:33.734Z,10.20
2023-03-01T13:39:33.595Z,9.87
2023-03-01T13:42:34.297Z,10.05
2023-03-01T13:45:22.626Z,9.75
2023-03-01T13:47:59.686Z,9.35
2023-03-01T13:50:49.386Z,9.70
2023-03-01T13:53:26.592Z,9.88
2023-03-01T13:56:13.570Z,10.90
2023-03-01T13:59:01.189Z,10.32
2023-03-01T14:01:36.942Z,9.75
2023-03-01T14:04:28.101Z,10.35
2023-03-01T14:07:23.924Z,10.27
2023-03-01T14:10:01.169Z,10.82
2023-03-01T14:12:53.979Z,9.90
2023-03-01T14:15:37.305Z,12.75
2023-03-01T14:18:24.691Z,10.48
2023-03-01T14:20:56.792Z,10.93
2023-03-01T14:23:29.049Z,10.38
2023-03-01T14:26:01.228Z,10.73
2023-03-01T14:28:38.449Z,11.80
2023-03-01T14:31:29.351Z,11.52
2023-03-01T14:34:01.658Z,10.85
2023-03-01T14:36:35.642Z,11.77
2023-03-01T14:39:24.514Z,11.20
2023-03-01T14:42:00.620Z,11.65
2023-03-01T14:44:38.595Z,11.15
2023-03-01T14:47:23.956Z,11.02
2023-03-01T14:50:08.047Z,11.73
2023-03-01T14:52:43.907Z,11.30
2023-03-01T14:55:48.069Z,11.80
2023-03-01T14:58:25.837Z,12.82
2023-03-01T15:01:04.481Z,11.75
2023-03-01T15:03:44.084Z,11.60
2023-03-01T15:06:21.656Z,11.95
2023-03-01T15:08:55.921Z,12.15
2023-03-01T15:11:33.885Z,12.43
2023-03-01T15:14:29.575Z,12.15
2023-03-01T15:17:07.195Z,11.23
2023-03-01T15:19:39.424Z,12.00
2023-03-01T15:22:17.267Z,11.75
2023-03-01T15:24:51.240Z,11.55
2023-03-01T15:27:26.402Z,13.38
2023-03-01T15:30:03.146Z,13.43
2023-03-01T15:32:40.279Z,13.60
2023-03-01T15:35:58.198Z,13.95
2023-03-01T15:38:57.827Z,13.85
2023-03-01T15:41:34.184Z,14.55
2023-03-01T15:44:42.750Z,14.77
2023-03-01T15:47:32.690Z,14.95
2023-03-01T15:50:05.418Z,14.73
2023-03-01T15:52:43.477Z,15.00
2023-03-01T15:55:26.281Z,15.73
2023-03-01T15:58:25.215Z,16.42
2023-03-01T16:01:01.301Z,16.67
2023-03-01T16:03:34.402Z,16.27
2023-03-01T16:06:06.527Z,15.48
2023-03-01T16:08:39.754Z,13.60
2023-03-01T16:11:19.248Z,15.50
2023-03-01T16:13:51.320Z,15.32
2023-03-01T16:16:23.779Z,16.63
2023-03-01T16:18:56.175Z,15.35
2023-03-01T16:21:28.236Z,15.07
2023-03-01T16:24:00.260Z,15.98
2023-03-01T16:26:32.546Z,15.93
2023-03-01T16:29:05.431Z,14.90
2023-03-01T16:31:38.312Z,14.57
2023-03-01T16:34:10.942Z,16.15
2023-03-01T16:36:44.177Z,15.85
2023-03-01T16:39:17.374Z,15.95
2023-03-01T16:41:49.376Z,16.38
2023-03-01T16:44:21.348Z,15.68
2023-03-01T16:46:53.308Z,16.08
2023-03-01T16:49:25.245Z,16.38
2023-03-01T16:51:57.273Z,15.57
2023-03-01T16:54:29.453Z,18.10
2023-03-01T16:57:01.513Z,17.55
2023-03-01T16:59:33.810Z,16.98
2023-03-01T17:02:10.822Z,18.00
2023-03-01T17:04:42.879Z,17.77
2023-03-01T17:07:15.178Z,16.73
2023-03-01T17:09:47.400Z,16.48
2023-03-01T17:12:19.441Z,17.75
2023-03-01T17:14:51.732Z,16.60
2023-03-01T17:17:23.757Z,17.42
2023-03-01T17:19:55.766Z,18.27
2023-03-01T17:22:27.797Z,17.23
2023-03-01T17:25:00.120Z,16.83
2023-03-01T17:27:35.696Z,16.23
2023-03-01T17:30:13.228Z,18.17
2023-03-01T17:32:45.455Z,17.92
2023-03-01T17:35:17.698Z,18.52
2023-03-01T17:37:49.855Z,18.30
2023-03-01T17:40:21.955Z,17.42
2023-03-01T17:42:54.170Z,17.40
2023-03-01T17:45:26.271Z,17.35
2023-03-01T17:47:58.316Z,18.70
2023-03-01T17:50:30.378Z,18.38
2023-03-01T17:53:07.534Z,20.23
2023-03-01T17:55:41.852Z,19.73
2023-03-01T17:58:15.579Z,20.65
2023-03-01T18:00:47.723Z,21.08
2023-03-01T18:03:21.784Z,21.08
2023-03-01T18:05:53.797Z,20.23
2023-03-01T18:08:25.848Z,21.50
2023-03-01T18:11:01.080Z,20.75
2023-03-01T18:13:33.093Z,21.58
2023-03-01T18:16:12.136Z,22.83
2023-03-01T18:18:45.343Z,24.63
2023-03-01T18:21:17.539Z,24.38
2023-03-01T18:23:49.784Z,25.92
2023-03-01T18:26:25.110Z,25.45
2023-03-01T18:29:01.312Z,30.73
2023-03-01T18:31:33.997Z,27.38
2023-03-01T18:34:06.408Z,26.13
2023-03-01T18:36:39.533Z,25.65
2023-03-01T18:39:15.177Z,29.58
2023-03-01T18:41:47.222Z,34.53
2023-03-01T18:44:19.385Z,31.02
2023-03-01T18:46:53.016Z,31.00
2023-03-01T18:49:26.517Z,38.55
2023-03-01T18:51:58.557Z,32.72
2023-03-01T18:54:30.687Z,34.45
2023-03-01T18:57:02.691Z,30.27
2023-03-01T18:59:34.802Z,40.95
2023-03-01T19:02:07.012Z,45.33
2023-03-01T19:04:39.277Z,29.27
2023-03-01T19:07:12.590Z,28.13
2023-03-01T19:09:44.727Z,32.40
2023-03-01T19:12:16.770Z,26.20
2023-03-01T19:14:49.101Z,27.02
2023-03-01T19:17:30.568Z,28.70
2023-03-01T19:20:02.679Z,29.77
2023-03-01T19:22:34.741Z,23.58
2023-03-01T19:25:07.580Z,25.10
2023-03-01T19:27:39.835Z,25.50
2023-03-01T19:30:12.620Z,42.85
2023-03-01T19:32:44.678Z,38.67
2023-03-01T19:35:16.815Z,26.95
2023-03-01T19:37:48.767Z,36.13
2023-03-01T19:40:20.987Z,29.25
2023-03-01T19:42:53.067Z,29.90
2023-03-01T19:45:32.959Z,28.73
2023-03-01T19:48:06.158Z,29.38
2023-03-01T19:50:38.574Z,27.63
2023-03-01T19:53:10.658Z,30.00
2023-03-01T19:55:43.288Z,30.33
2023-03-01T19:58:15.386Z,30.73
2023-03-01T20:00:47.912Z,33.63
2023-03-01T20:03:19.939Z,30.27
2023-03-01T20:05:52.132Z,29.88
2023-03-01T20:08:25.404Z,29.95
2023-03-01T20:11:09.666Z,30.95
2023-03-01T20:13:42.139Z,31.63
2023-03-01T20:16:20.326Z,29.15
2023-03-01T20:18:53.695Z,27.60
2023-03-01T20:21:27.179Z,26.02
2023-03-01T20:24:00.241Z,26.83
2023-03-01T20:26:33.390Z,24.75
2023-03-01T20:29:08.401Z,25.42
2023-03-01T20:31:42.636Z,26.05
2023-03-01T20:34:14.944Z,27.38
2023-03-01T20:36:47.362Z,25.55
2023-03-01T20:39:19.504Z,24.30
2023-03-01T20:41:51.845Z,21.90
2023-03-01T20:44:24.072Z,21.65
2023-03-01T20:46:56.513Z,20.83
2023-03-01T20:49:29.111Z,20.02
2023-03-01T20:52:04.215Z,21.90
2023-03-01T20:54:36.592Z,21.05
2023-03-01T20:57:09.371Z,20.10
2023-03-01T20:59:41.468Z,20.15
2023-03-01T21:02:13.576Z,20.50
2023-03-01T21:04:45.570Z,22.23
2023-03-01T21:07:17.684Z,22.85
2023-03-01T21:09:49.901Z,22.52
2023-03-01T21:12:22.071Z,20.75
2023-03-01T21:14:54.156Z,19.95
2023-03-01T21:17:26.328Z,20.13
2023-03-01T21:19:58.497Z,20.35
2023-03-01T21:22:33.006Z,21.25
2023-03-01T21:25:05.514Z,22.52
2023-03-01T21:27:38.592Z,20.15
2023-03-01T21:30:11.826Z,21.35
2023-03-01T21:32:43.904Z,20.05
2023-03-01T21:35:16.173Z,19.70
2023-03-01T21:37:48.357Z,21.45
2023-03-01T21:40:20.399Z,20.38
2023-03-01T21:42:52.419Z,19.40
2023-03-01T21:45:25.003Z,20.10
2023-03-01T21:47:57.315Z,19.67
2023-03-01T21:50:30.589Z,21.33
2023-03-01T21:53:05.384Z,21.42
2023-03-01T21:55:37.429Z,20.63
2023-03-01T21:58:09.839Z,20.33
2023-03-01T22:00:44.679Z,21.17
2023-03-01T22:03:17.176Z,20.40
2023-03-01T22:05:57.719Z,19.98
2023-03-01T22:08:29.973Z,22.00
2023-03-01T22:11:02.991Z,20.88
2023-03-01T22:13:35.060Z,20.23
2023-03-01T22:16:07.992Z,21.42
2023-03-01T22:18:40.126Z,21.98
2023-03-01T22:21:12.863Z,19.45
2023-03-01T22:23:45.313Z,21.10
2023-03-01T22:26:28.760Z,19.40
2023-03-01T22:29:06.340Z,21.05
2023-03-01T22:31:39.434Z,19.15
2023-03-01T22:34:12.654Z,19.73
2023-03-01T22:36:45.340Z,21.27
2023-03-01T22:39:20.061Z,21.20
2023-03-01T22:41:54.792Z,20.20
2023-03-01T22:44:26.812Z,21.00
2023-03-01T22:46:59.058Z,18.67
2023-03-01T22:49:31.120Z,20.77
2023-03-01T22:52:03.696Z,19.90
2023-03-01T22:54:36.122Z,20.85
2023-03-01T22:57:11.517Z,19.27
2023-03-01T22:59:43.623Z,25.50
2023-03-01T23:02:16.272Z,19.23
2023-03-01T23:04:48.609Z,20.85
2023-03-01T23:07:21.356Z,20.15
2023-03-01T23:09:53.401Z,20.60
2023-03-01T23:12:25.488Z,20.55
2023-03-01T23:14:58.259Z,20.08
2023-03-01T23:17:30.303Z,19.23
2023-03-01T23:20:07.868Z,20.48
2023-03-01T23:22:40.865Z,21.10
2023-03-01T23:25:13.286Z,21.85
2023-03-01T23:27:45.368Z,20.83
2023-03-01T23:30:17.483Z,22.33
2023-03-01T23:32:50.535Z,23.77
2023-03-01T23:35:22.525Z,21.80
2023-03-01T23:37:54.586Z,23.17
2023-03-01T23:40:26.582Z,22.20
2023-03-01T23:42:58.576Z,25.35
2023-03-01T23:45:30.642Z,24.02
2023-03-01T23:48:02.701Z,23.58
2023-03-01T23:50:42.067Z,23.50
2023-03-01T23:53:21.348Z,24.48
2023-03-01T23:55:55.249Z,21.90
2023-03-01T23:58:28.829Z,24.10
